createdAt,value
2017-08-11T00:04:21.791Z,7.90
2017-08-11T00:09:28.355Z,8.37
2017-08-11T00:14:31.822Z,9.90
2017-08-11T00:19:35.284Z,8.90
2017-08-11T00:24:38.468Z,8.87
2017-08-11T00:29:42.561Z,7.67
2017-08-11T00:34:45.764Z,8.43
2017-08-11T00:45:25.051Z,8.77
2017-08-11T00:50:29.278Z,7.73
2017-08-11T00:55:33.098Z,8.87
2017-08-11T01:00:36.609Z,10.47
2017-08-11T01:05:40.330Z,12.03
2017-08-11T01:10:43.515Z,14.57
2017-08-11T01:15:47.361Z,14.80
2017-08-11T01:20:51.266Z,14.27
2017-08-11T01:25:54.810Z,15.83
2017-08-11T01:30:58.094Z,15.10
2017-08-11T01:36:01.452Z,15.97
2017-08-11T01:41:05.653Z,14.93
2017-08-11T01:46:19.522Z,14.10
2017-08-11T01:56:57.522Z,14.27
2017-08-11T02:02:00.728Z,13.57
2017-08-11T02:07:03.895Z,14.40
2017-08-11T02:12:07.085Z,14.03
2017-08-11T02:17:11.129Z,15.40
2017-08-11T02:22:15.058Z,16.30
2017-08-11T02:27:18.237Z,17.37
2017-08-11T02:32:21.416Z,16.60
2017-08-11T02:37:24.595Z,16.00
2017-08-11T02:42:27.780Z,17.83
2017-08-11T02:47:30.965Z,17.10
2017-08-11T02:52:34.926Z,18.10
2017-08-11T02:57:38.220Z,17.30
2017-08-11T03:02:42.165Z,18.50
2017-08-11T03:07:45.345Z,18.57
2017-08-11T03:12:48.613Z,19.50
2017-08-11T03:17:51.805Z,19.43
2017-08-11T03:22:55.003Z,18.07
2017-08-11T03:27:58.189Z,18.77
2017-08-11T03:33:01.406Z,15.90
2017-08-11T03:38:04.582Z,17.67
2017-08-11T03:43:08.536Z,17.50
2017-08-11T03:48:11.717Z,19.70
2017-08-11T03:53:15.672Z,19.40
2017-08-11T03:58:18.956Z,17.57
2017-08-11T04:03:22.155Z,17.93
2017-08-11T04:08:26.209Z,19.73
2017-08-11T04:13:29.399Z,16.80
2017-08-11T04:18:33.079Z,18.10
2017-08-11T04:23:36.478Z,18.50
2017-08-11T04:28:39.684Z,19.40
2017-08-11T04:33:42.889Z,18.70
2017-08-11T04:38:46.088Z,19.20
2017-08-11T04:43:49.251Z,18.67
2017-08-11T04:48:53.217Z,18.33
2017-08-11T04:53:56.501Z,21.87
2017-08-11T04:58:59.859Z,22.20
2017-08-11T05:04:03.048Z,23.33
2017-08-11T05:09:07.671Z,24.10
2017-08-11T05:14:10.896Z,23.20
2017-08-11T05:19:14.086Z,22.23
2017-08-11T05:24:17.332Z,22.33
2017-08-11T05:29:20.509Z,21.50
2017-08-11T05:34:23.724Z,22.03
2017-08-11T05:39:26.926Z,20.70
2017-08-11T05:44:30.158Z,22.60
2017-08-11T05:49:33.360Z,22.60
2017-08-11T05:54:36.558Z,24.20
2017-08-11T05:59:39.753Z,24.17
2017-08-11T06:04:42.946Z,25.50
2017-08-11T06:09:46.133Z,25.83
2017-08-11T06:14:49.330Z,26.30
2017-08-11T06:19:53.323Z,25.27
2017-08-11T06:24:56.505Z,22.33
2017-08-11T06:29:59.686Z,23.57
2017-08-11T06:35:02.877Z,21.53
2017-08-11T06:40:06.835Z,24.40
2017-08-11T06:45:10.116Z,22.97
2017-08-11T06:50:14.057Z,25.77
2017-08-11T06:55:17.240Z,27.90
2017-08-11T07:00:21.392Z,24.00
2017-08-11T07:05:24.604Z,23.30
2017-08-11T07:10:27.829Z,21.67
2017-08-11T07:15:31.026Z,18.43
2017-08-11T07:20:34.214Z,17.97
2017-08-11T07:25:37.390Z,17.17
2017-08-11T07:30:40.583Z,16.00
2017-08-11T07:35:43.790Z,17.97
2017-08-11T07:40:47.035Z,18.90
2017-08-11T07:45:50.962Z,20.47
2017-08-11T07:50:54.225Z,17.77
2017-08-11T07:55:57.414Z,18.70
2017-08-11T08:01:00.608Z,17.70
2017-08-11T08:06:03.801Z,19.20
2017-08-11T08:11:07.007Z,16.57
2017-08-11T08:16:10.204Z,17.20
2017-08-11T08:21:14.160Z,19.13
2017-08-11T08:26:17.465Z,18.53
2017-08-11T08:31:20.665Z,15.80
2017-08-11T08:36:23.890Z,16.60
2017-08-11T08:41:27.082Z,16.30
2017-08-11T08:46:30.270Z,14.30
2017-08-11T08:51:33.458Z,14.00
2017-08-11T08:56:37.465Z,9.60
2017-08-11T09:01:40.714Z,8.63
2017-08-11T09:06:44.645Z,7.67
2017-08-11T09:11:47.842Z,6.40
2017-08-11T09:16:51.020Z,5.80
2017-08-11T09:21:54.211Z,4.90
2017-08-11T09:27:15.402Z,5.17
2017-08-11T09:32:46.207Z,5.20
2017-08-11T09:37:49.397Z,3.07
2017-08-11T09:42:52.608Z,2.63
2017-08-11T09:47:55.796Z,2.00
2017-08-11T09:52:59.005Z,1.97
2017-08-11T09:58:02.182Z,1.87
2017-08-11T10:03:05.385Z,2.37
2017-08-11T10:08:08.560Z,2.70
2017-08-11T10:13:12.543Z,2.70
2017-08-11T10:18:15.726Z,2.13
2017-08-11T10:23:19.050Z,2.23
2017-08-11T10:28:22.243Z,1.73
2017-08-11T10:33:25.442Z,1.87
2017-08-11T10:38:28.602Z,2.37
2017-08-11T10:43:31.800Z,2.10
2017-08-11T10:48:35.005Z,2.37
2017-08-11T10:53:38.178Z,2.07
2017-08-11T10:58:41.342Z,1.77
2017-08-11T11:03:44.521Z,2.30
2017-08-11T11:08:47.718Z,2.20
2017-08-11T11:13:50.923Z,2.40
2017-08-11T11:18:54.245Z,1.63
2017-08-11T11:23:57.431Z,2.10
2017-08-11T11:29:00.644Z,2.33
2017-08-11T11:34:03.826Z,1.27
2017-08-11T11:39:07.000Z,1.67
2017-08-11T11:44:10.958Z,1.70
2017-08-11T11:49:14.142Z,1.30
2017-08-11T11:54:18.113Z,1.20
2017-08-11T11:59:21.390Z,1.50
2017-08-11T12:04:25.278Z,1.57
2017-08-11T12:09:28.463Z,1.60
2017-08-11T12:14:31.650Z,1.60
2017-08-11T12:19:34.818Z,1.20
2017-08-11T12:24:37.990Z,1.60
2017-08-11T12:29:41.179Z,1.53
2017-08-11T12:34:44.370Z,1.90
2017-08-11T12:39:47.577Z,2.43
2017-08-11T12:44:50.785Z,2.33
2017-08-11T12:49:53.991Z,2.70
2017-08-11T12:54:57.176Z,2.60
2017-08-11T13:00:01.133Z,3.20
2017-08-11T13:05:04.327Z,2.90
2017-08-11T13:10:07.535Z,3.23
2017-08-11T13:15:10.723Z,3.37
2017-08-11T13:20:14.683Z,3.80
2017-08-11T13:25:17.865Z,3.03
2017-08-11T13:30:21.172Z,3.47
2017-08-11T13:35:25.142Z,4.53
2017-08-11T13:40:28.329Z,3.40
2017-08-11T13:45:31.554Z,4.00
2017-08-11T13:50:34.737Z,3.87
2017-08-11T13:55:37.995Z,3.70
2017-08-11T14:00:41.195Z,4.40
2017-08-11T14:05:44.381Z,4.10
2017-08-11T14:10:47.567Z,4.40
2017-08-11T14:15:50.757Z,3.53
2017-08-11T14:20:53.931Z,4.20
2017-08-11T14:25:57.133Z,3.77
2017-08-11T14:31:00.335Z,4.23
2017-08-11T14:36:03.593Z,4.73
2017-08-11T14:41:06.798Z,4.80
2017-08-11T14:46:09.986Z,5.80
2017-08-11T14:51:13.897Z,4.57
2017-08-11T14:56:17.840Z,6.40
2017-08-11T15:01:21.064Z,5.47
2017-08-11T15:06:24.272Z,6.50
2017-08-11T15:11:27.455Z,5.70
2017-08-11T15:16:31.481Z,6.20
2017-08-11T15:21:35.431Z,5.97
2017-08-11T15:26:38.650Z,7.03
2017-08-11T15:31:41.838Z,6.93
2017-08-11T15:36:45.026Z,7.33
2017-08-11T15:41:48.280Z,7.87
2017-08-11T15:46:51.473Z,7.93
2017-08-11T15:51:54.702Z,7.70
2017-08-11T15:56:57.922Z,8.90
2017-08-11T16:02:01.509Z,8.03
2017-08-11T16:07:04.977Z,9.30
2017-08-11T16:12:08.182Z,9.97
2017-08-11T16:17:11.350Z,9.53
2017-08-11T16:22:14.655Z,10.60
2017-08-11T16:27:17.869Z,10.87
2017-08-11T16:32:21.070Z,12.17
2017-08-11T16:37:24.309Z,14.93
2017-08-11T16:42:27.717Z,15.57
2017-08-11T16:47:30.910Z,15.40
2017-08-11T16:52:34.099Z,19.20
2017-08-11T16:57:37.313Z,17.30
2017-08-11T17:02:40.518Z,24.97
2017-08-11T17:07:43.711Z,13.97
2017-08-11T17:12:46.912Z,14.10
2017-08-11T17:17:50.097Z,17.80
2017-08-11T17:22:53.298Z,13.67
2017-08-11T17:27:57.314Z,14.07
2017-08-11T17:33:01.275Z,13.10
2017-08-11T17:38:05.464Z,14.17
2017-08-11T17:43:08.762Z,13.57
2017-08-11T17:48:11.947Z,12.03
2017-08-11T17:53:15.140Z,15.67
2017-08-11T17:58:18.321Z,12.27
2017-08-11T18:03:21.555Z,14.63
2017-08-11T18:08:24.797Z,14.27
2017-08-11T18:13:27.985Z,15.10
2017-08-11T18:18:31.188Z,16.10
2017-08-11T18:23:34.381Z,16.40
2017-08-11T18:28:37.868Z,12.07
2017-08-11T18:33:41.336Z,13.10
2017-08-11T18:38:44.510Z,14.93
2017-08-11T18:43:47.761Z,16.60
2017-08-11T18:48:50.980Z,16.03
2017-08-11T18:53:54.938Z,17.40
2017-08-11T18:58:58.661Z,16.67
2017-08-11T19:04:02.080Z,18.03
2017-08-11T19:09:05.517Z,21.77
2017-08-11T19:14:08.711Z,17.97
2017-08-11T19:19:11.925Z,18.60
2017-08-11T19:24:15.326Z,17.37
2017-08-11T19:29:18.570Z,16.17
2017-08-11T19:34:21.816Z,16.57
2017-08-11T19:39:25.012Z,17.87
2017-08-11T19:44:28.993Z,16.63
2017-08-11T19:49:32.205Z,18.73
2017-08-11T19:54:35.382Z,21.70
2017-08-11T19:59:38.601Z,19.40
2017-08-11T20:04:41.789Z,22.70
2017-08-11T20:09:44.965Z,23.43
2017-08-11T20:20:23.614Z,18.27
2017-08-11T20:25:27.208Z,19.30
2017-08-11T20:30:30.723Z,23.07
2017-08-11T20:35:33.930Z,21.80
2017-08-11T20:40:37.721Z,27.63
2017-08-11T20:45:41.100Z,25.53
2017-08-11T20:50:45.366Z,27.97
2017-08-11T20:55:48.566Z,26.00
2017-08-11T21:00:51.751Z,28.87
2017-08-11T21:05:55.168Z,30.67
2017-08-11T21:10:59.068Z,26.57
2017-08-11T21:16:02.400Z,27.50
2017-08-11T21:21:06.140Z,25.83
2017-08-11T21:26:09.729Z,26.83
2017-08-11T21:31:12.941Z,26.50
2017-08-11T21:36:16.127Z,25.30
2017-08-11T21:41:20.091Z,26.77
2017-08-11T21:46:23.299Z,27.60
2017-08-11T21:51:26.491Z,24.93
2017-08-11T21:56:29.680Z,24.13
2017-08-11T22:01:33.681Z,27.03
2017-08-11T22:06:36.865Z,24.77
2017-08-11T22:11:40.090Z,24.47
2017-08-11T22:16:43.293Z,26.23
2017-08-11T22:21:46.489Z,28.23
2017-08-11T22:26:49.694Z,26.00
2017-08-11T22:31:52.950Z,24.37
2017-08-11T22:36:56.173Z,25.23
2017-08-11T22:41:59.464Z,23.20
2017-08-11T22:47:03.425Z,23.20
2017-08-11T22:52:06.686Z,24.50
2017-08-11T22:57:09.880Z,22.03
2017-08-11T23:02:13.837Z,23.10
2017-08-11T23:07:17.038Z,24.50
2017-08-11T23:12:20.210Z,22.77
2017-08-11T23:17:23.436Z,24.37
2017-08-11T23:22:27.419Z,24.30
2017-08-11T23:27:30.634Z,22.13
2017-08-11T23:32:33.839Z,25.87
2017-08-11T23:37:37.015Z,22.73
2017-08-11T23:42:40.194Z,23.80
2017-08-11T23:47:44.148Z,24.13
2017-08-11T23:52:47.332Z,24.23
2017-08-11T23:57:50.520Z,23.87
